createdAt,value
2018-06-16T00:01:49.866Z,78.60
2018-06-16T00:06:46.539Z,79.30
2018-06-16T00:09:15.076Z,79.80
2018-06-16T00:11:43.571Z,80.10
2018-06-16T00:14:12.082Z,80.60
2018-06-16T00:16:40.615Z,80.10
2018-06-16T00:19:09.117Z,79.90
2018-06-16T00:21:37.639Z,80.00
2018-06-16T00:29:02.573Z,81.70
2018-06-16T00:31:31.071Z,82.00
2018-06-16T00:36:27.771Z,82.70
2018-06-16T00:38:56.293Z,83.50
2018-06-16T00:41:24.823Z,82.60
2018-06-16T00:43:53.347Z,82.20
2018-06-16T00:46:21.844Z,82.00
2018-06-16T00:48:50.357Z,82.90
2018-06-16T00:51:18.888Z,83.00
2018-06-16T00:53:47.413Z,83.00
2018-06-16T00:56:15.968Z,83.70
2018-06-16T00:58:44.518Z,84.70
2018-06-16T01:01:13.025Z,84.70
2018-06-16T01:03:41.512Z,85.00
2018-06-16T01:06:10.068Z,85.10
2018-06-16T01:08:38.583Z,85.70
2018-06-16T01:11:07.140Z,86.40
2018-06-16T01:13:35.648Z,86.20
2018-06-16T01:16:04.172Z,87.00
2018-06-16T01:18:32.682Z,86.00
2018-06-16T01:21:01.186Z,87.00
2018-06-16T01:23:29.674Z,87.00
2018-06-16T01:28:26.338Z,86.50
2018-06-16T01:30:54.830Z,86.30
2018-06-16T01:35:51.521Z,87.30
2018-06-16T01:38:20.047Z,86.50
2018-06-16T01:40:48.555Z,86.00
2018-06-16T01:43:17.090Z,86.50
2018-06-16T01:45:45.625Z,86.50
2018-06-16T01:48:14.113Z,87.40
2018-06-16T01:50:42.691Z,88.40
2018-06-16T01:53:11.203Z,89.00
2018-06-16T01:55:39.731Z,88.70
2018-06-16T01:58:08.269Z,88.50
2018-06-16T02:03:05.011Z,88.40
2018-06-16T02:05:33.520Z,88.80
2018-06-16T02:08:02.026Z,89.20
2018-06-16T02:10:30.559Z,89.70
2018-06-16T02:12:59.049Z,90.00
2018-06-16T02:15:27.556Z,89.80
2018-06-16T02:17:56.056Z,89.10
2018-06-16T02:20:24.528Z,89.80
2018-06-16T02:22:53.076Z,89.60
2018-06-16T02:25:21.566Z,90.50
2018-06-16T02:27:50.078Z,90.30
2018-06-16T02:30:18.632Z,90.10
2018-06-16T02:32:47.144Z,90.00
2018-06-16T02:35:15.648Z,89.80
2018-06-16T02:37:44.196Z,88.50
2018-06-16T02:40:12.668Z,89.30
2018-06-16T02:42:41.212Z,90.10
2018-06-16T02:45:09.748Z,90.20
2018-06-16T02:47:38.303Z,90.10
2018-06-16T02:50:06.839Z,89.00
2018-06-16T02:52:35.374Z,87.70
2018-06-16T02:57:32.021Z,88.50
2018-06-16T03:00:00.525Z,88.70
2018-06-16T03:02:29.039Z,89.10
2018-06-16T03:04:57.587Z,89.70
2018-06-16T03:07:26.083Z,89.80
2018-06-16T03:12:22.845Z,90.10
2018-06-16T03:17:19.545Z,90.20
2018-06-16T03:19:48.071Z,89.70
2018-06-16T03:22:16.597Z,89.80
2018-06-16T03:24:45.078Z,90.00
2018-06-16T03:27:13.579Z,87.80
2018-06-16T03:29:42.081Z,86.20
2018-06-16T03:32:10.575Z,85.30
2018-06-16T03:34:39.105Z,85.50
2018-06-16T03:39:35.769Z,86.50
2018-06-16T03:42:04.385Z,86.40
2018-06-16T03:44:32.916Z,86.90
2018-06-16T03:47:01.408Z,88.50
2018-06-16T03:49:29.915Z,88.90
2018-06-16T03:54:26.640Z,89.30
2018-06-16T03:56:55.163Z,89.30
2018-06-16T03:59:23.640Z,90.20
2018-06-16T04:01:52.208Z,89.80
2018-06-16T04:04:20.696Z,90.00
2018-06-16T04:06:49.196Z,90.10
2018-06-16T04:09:17.716Z,90.10
2018-06-16T04:11:46.207Z,90.20
2018-06-16T04:14:14.712Z,90.00
2018-06-16T04:16:43.252Z,89.70
2018-06-16T04:19:11.764Z,89.50
2018-06-16T04:21:40.291Z,89.80
2018-06-16T04:24:08.897Z,89.40
2018-06-16T04:26:37.398Z,89.30
2018-06-16T04:31:34.102Z,89.20
2018-06-16T04:34:02.632Z,88.60
2018-06-16T04:36:31.148Z,88.30
2018-06-16T04:41:27.849Z,86.70
2018-06-16T04:43:56.379Z,86.20
2018-06-16T04:46:24.882Z,87.40
2018-06-16T04:48:53.415Z,87.30
2018-06-16T04:51:21.951Z,87.40
2018-06-16T04:53:50.546Z,89.10
2018-06-16T04:56:19.093Z,89.70
2018-06-16T04:58:47.583Z,90.00
2018-06-16T05:01:16.083Z,89.90
2018-06-16T05:03:44.613Z,90.00
2018-06-16T05:06:13.110Z,90.60
2018-06-16T05:08:41.660Z,90.60
2018-06-16T05:11:10.195Z,90.90
2018-06-16T05:13:38.709Z,90.30
2018-06-16T05:16:07.205Z,90.80
2018-06-16T05:18:35.719Z,91.10
2018-06-16T05:21:04.496Z,91.50
2018-06-16T05:23:33.035Z,91.20
2018-06-16T05:26:01.524Z,91.50
2018-06-16T05:28:30.058Z,92.00
2018-06-16T05:33:26.771Z,91.80
2018-06-16T05:35:55.299Z,92.20
2018-06-16T05:38:23.854Z,92.20
2018-06-16T05:40:52.348Z,92.70
2018-06-16T05:43:20.859Z,92.30
2018-06-16T05:45:49.395Z,93.20
2018-06-16T05:48:17.905Z,92.50
2018-06-16T05:50:46.447Z,90.50
2018-06-16T05:53:14.974Z,92.60
2018-06-16T05:55:43.746Z,91.60
2018-06-16T05:58:12.291Z,91.80
2018-06-16T06:05:37.143Z,85.30
2018-06-16T06:08:05.715Z,84.20
2018-06-16T06:10:34.242Z,84.00
2018-06-16T06:13:02.762Z,82.90
2018-06-16T06:15:31.288Z,81.10
2018-06-16T06:20:27.940Z,78.00
2018-06-16T06:22:56.498Z,79.00
2018-06-16T06:25:25.035Z,80.90
2018-06-16T06:27:53.579Z,78.10
2018-06-16T06:30:22.099Z,75.70
2018-06-16T06:35:18.831Z,76.20
2018-06-16T06:37:47.376Z,74.30
2018-06-16T06:40:15.920Z,71.90
2018-06-16T06:42:44.483Z,73.80
2018-06-16T06:45:13.231Z,72.30
2018-06-16T06:47:41.766Z,70.70
2018-06-16T06:50:10.347Z,72.50
2018-06-16T06:52:38.875Z,69.90
2018-06-16T06:55:07.442Z,69.10
2018-06-16T06:57:35.967Z,68.50
2018-06-16T07:00:04.548Z,66.20
2018-06-16T07:02:33.116Z,65.00
2018-06-16T07:07:29.868Z,67.40
2018-06-16T07:09:58.396Z,69.00
2018-06-16T07:12:26.941Z,67.60
2018-06-16T07:14:55.480Z,66.70
2018-06-16T07:17:24.017Z,64.50
2018-06-16T07:19:52.544Z,63.50
2018-06-16T07:22:21.096Z,63.00
2018-06-16T07:24:49.630Z,63.10
2018-06-16T07:27:18.154Z,63.20
2018-06-16T07:29:46.761Z,64.70
2018-06-16T07:32:15.349Z,62.80
2018-06-16T07:34:43.937Z,60.10
2018-06-16T07:37:12.441Z,62.30
2018-06-16T07:42:09.220Z,60.00
2018-06-16T07:44:37.756Z,62.20
2018-06-16T07:47:06.353Z,58.90
2018-06-16T07:49:34.906Z,60.40
2018-06-16T07:52:03.465Z,62.00
2018-06-16T07:54:32.017Z,61.00
2018-06-16T07:57:00.629Z,62.60
2018-06-16T07:59:29.196Z,57.50
2018-06-16T08:01:57.939Z,58.30
2018-06-16T08:04:26.527Z,57.20
2018-06-16T08:06:55.366Z,59.50
2018-06-16T08:09:23.934Z,57.30
2018-06-16T08:11:52.650Z,55.60
2018-06-16T08:14:21.199Z,55.40
2018-06-16T08:16:49.781Z,55.00
2018-06-16T08:19:18.340Z,56.50
2018-06-16T08:21:46.885Z,56.60
2018-06-16T08:24:15.439Z,54.80
2018-06-16T08:26:44.029Z,54.50
2018-06-16T08:29:12.575Z,53.30
2018-06-16T08:34:09.396Z,52.60
2018-06-16T08:36:37.950Z,54.50
2018-06-16T08:39:08.924Z,52.40
2018-06-16T08:41:37.486Z,55.50
2018-06-16T08:44:06.215Z,57.90
2018-06-16T08:46:34.874Z,56.20
2018-06-16T08:49:03.392Z,55.50
2018-06-16T08:51:31.975Z,53.30
2018-06-16T08:54:00.617Z,54.00
2018-06-16T08:56:29.223Z,52.10
2018-06-16T08:58:57.779Z,53.70
2018-06-16T09:01:26.321Z,49.50
2018-06-16T09:03:54.875Z,51.60
2018-06-16T09:06:23.451Z,50.80
2018-06-16T09:08:51.983Z,52.20
2018-06-16T09:11:20.583Z,52.80
2018-06-16T09:13:49.098Z,56.40
2018-06-16T09:16:17.622Z,54.80
2018-06-16T09:18:46.209Z,53.60
2018-06-16T09:21:14.761Z,51.50
2018-06-16T09:26:11.493Z,52.20
2018-06-16T09:28:40.061Z,50.90
2018-06-16T09:31:08.676Z,51.20
2018-06-16T09:33:37.223Z,50.30
2018-06-16T09:36:05.802Z,52.10
2018-06-16T09:38:34.332Z,51.10
2018-06-16T09:41:02.866Z,53.00
2018-06-16T09:43:31.426Z,51.50
2018-06-16T09:46:00.033Z,51.80
2018-06-16T09:48:28.576Z,52.30
2018-06-16T09:50:57.090Z,52.20
2018-06-16T09:53:25.617Z,51.00
2018-06-16T09:55:54.177Z,52.20
2018-06-16T09:58:22.682Z,51.40
2018-06-16T10:00:51.214Z,50.10
2018-06-16T10:03:19.819Z,51.60
2018-06-16T10:05:48.333Z,50.80
2018-06-16T10:08:16.884Z,51.40
2018-06-16T10:10:45.508Z,52.60
2018-06-16T10:15:42.298Z,51.90
2018-06-16T10:18:10.891Z,50.90
2018-06-16T10:20:39.435Z,51.00
2018-06-16T10:23:07.947Z,53.10
2018-06-16T10:25:36.468Z,51.10
2018-06-16T10:28:05.026Z,52.00
2018-06-16T10:30:33.586Z,50.80
2018-06-16T10:33:02.210Z,53.90
2018-06-16T10:35:30.867Z,50.10
2018-06-16T10:37:59.434Z,48.90
2018-06-16T10:40:28.142Z,49.50
2018-06-16T10:45:24.985Z,50.10
2018-06-16T10:47:55.265Z,49.30
2018-06-16T10:50:23.801Z,52.20
2018-06-16T10:52:52.536Z,48.50
2018-06-16T10:55:21.076Z,53.70
2018-06-16T10:57:49.680Z,48.40
2018-06-16T11:00:18.301Z,51.40
2018-06-16T11:02:46.846Z,51.40
2018-06-16T11:05:15.452Z,48.70
2018-06-16T11:07:44.047Z,44.10
2018-06-16T11:12:40.866Z,46.20
2018-06-16T11:15:09.414Z,42.40
2018-06-16T11:17:38.042Z,42.70
2018-06-16T11:20:06.595Z,41.70
2018-06-16T11:22:35.168Z,39.00
2018-06-16T11:27:31.909Z,40.80
2018-06-16T11:30:00.463Z,42.30
2018-06-16T11:32:29.021Z,40.20
2018-06-16T11:34:57.572Z,39.90
2018-06-16T11:37:26.141Z,46.10
2018-06-16T11:39:54.685Z,41.40
2018-06-16T11:42:23.326Z,39.20
2018-06-16T11:44:51.981Z,44.20
2018-06-16T11:47:20.673Z,40.30
2018-06-16T11:49:49.213Z,41.70
2018-06-16T11:52:17.842Z,39.50
2018-06-16T11:54:46.380Z,37.90
2018-06-16T11:57:14.980Z,39.50
2018-06-16T12:02:11.737Z,39.80
2018-06-16T12:04:40.485Z,39.50
2018-06-16T12:07:09.025Z,37.00
2018-06-16T12:17:02.123Z,38.60
2018-06-16T12:19:30.649Z,40.60
2018-06-16T12:21:59.210Z,38.90
2018-06-16T12:24:27.758Z,39.40
2018-06-16T12:26:56.293Z,37.90
2018-06-16T12:31:53.060Z,39.40
2018-06-16T12:34:21.619Z,41.00
2018-06-16T12:36:50.245Z,40.50
2018-06-16T12:39:18.800Z,38.70
2018-06-16T12:41:47.333Z,37.50
2018-06-16T12:44:15.920Z,40.80
2018-06-16T12:46:44.494Z,39.10
2018-06-16T12:54:09.508Z,39.30
2018-06-16T12:56:38.127Z,41.00
2018-06-16T12:59:06.667Z,39.10
2018-06-16T13:01:35.219Z,41.00
2018-06-16T13:04:03.855Z,39.90
2018-06-16T13:06:32.409Z,39.40
2018-06-16T13:09:00.985Z,41.00
2018-06-16T13:11:29.546Z,40.10
2018-06-16T13:16:26.329Z,39.80
2018-06-16T13:18:54.959Z,39.20
2018-06-16T13:21:23.552Z,40.20
2018-06-16T13:23:52.193Z,39.20
2018-06-16T13:28:49.002Z,38.50
2018-06-16T13:31:17.600Z,39.00
2018-06-16T13:33:46.135Z,39.70
2018-06-16T13:38:42.899Z,38.90
2018-06-16T13:43:39.624Z,39.70
2018-06-16T13:46:08.160Z,42.30
2018-06-16T13:48:36.675Z,40.20
2018-06-16T13:51:05.246Z,41.30
2018-06-16T13:53:33.808Z,39.90
2018-06-16T13:58:30.594Z,42.00
2018-06-16T14:00:59.309Z,39.10
2018-06-16T14:03:27.867Z,41.70
2018-06-16T14:05:56.536Z,40.10
2018-06-16T14:08:25.166Z,40.00
2018-06-16T14:10:53.722Z,39.00
2018-06-16T14:13:22.261Z,41.50
2018-06-16T14:15:50.839Z,38.80
2018-06-16T14:18:19.420Z,41.80
2018-06-16T14:20:47.992Z,41.30
2018-06-16T14:23:16.525Z,39.40
2018-06-16T14:25:45.148Z,38.10
2018-06-16T14:28:13.701Z,38.20
2018-06-16T14:30:42.251Z,38.20
2018-06-16T14:33:10.879Z,37.80
2018-06-16T14:35:39.539Z,38.00
2018-06-16T14:38:08.089Z,38.60
2018-06-16T14:43:04.963Z,39.50
2018-06-16T14:45:33.579Z,38.10
2018-06-16T14:48:02.123Z,38.70
2018-06-16T14:52:59.141Z,38.80
2018-06-16T14:55:27.721Z,38.70
2018-06-16T14:57:56.294Z,37.00
2018-06-16T15:00:24.805Z,36.40
2018-06-16T15:02:53.388Z,37.50
2018-06-16T15:05:21.976Z,36.60
2018-06-16T15:07:50.544Z,37.40
2018-06-16T15:10:19.117Z,36.10
2018-06-16T15:15:15.855Z,35.00
2018-06-16T15:17:44.431Z,34.00
2018-06-16T15:20:12.971Z,33.70
2018-06-16T15:22:41.528Z,34.00
2018-06-16T15:25:10.124Z,33.10
2018-06-16T15:30:06.912Z,35.50
2018-06-16T15:32:35.565Z,34.70
2018-06-16T15:35:04.182Z,34.70
2018-06-16T15:37:32.830Z,34.60
2018-06-16T15:40:01.406Z,35.70
2018-06-16T15:42:30.011Z,35.20
2018-06-16T15:44:58.505Z,35.80
2018-06-16T15:47:27.051Z,35.90
2018-06-16T15:49:55.609Z,37.70
2018-06-16T15:52:24.146Z,37.50
2018-06-16T15:54:52.764Z,39.60
2018-06-16T15:57:21.488Z,39.40
2018-06-16T15:59:50.059Z,39.20
2018-06-16T16:02:18.602Z,41.70
2018-06-16T16:04:47.162Z,41.40
2018-06-16T16:07:15.695Z,40.40
2018-06-16T16:09:44.241Z,39.40
2018-06-16T16:12:12.819Z,39.10
2018-06-16T16:14:41.346Z,40.00
2018-06-16T16:17:09.886Z,40.10
2018-06-16T16:19:38.512Z,39.80
2018-06-16T16:22:07.109Z,39.50
2018-06-16T16:24:35.690Z,42.60
2018-06-16T16:27:04.349Z,41.10
2018-06-16T16:29:32.974Z,41.70
2018-06-16T16:32:01.493Z,41.80
2018-06-16T16:34:30.076Z,41.50
2018-06-16T16:36:58.611Z,40.70
2018-06-16T16:39:27.155Z,41.70
2018-06-16T16:41:55.701Z,41.90
2018-06-16T16:44:24.273Z,42.70
2018-06-16T16:46:52.876Z,41.20
2018-06-16T16:49:21.460Z,42.10
2018-06-16T16:51:50.023Z,42.60
2018-06-16T16:54:18.684Z,40.70
2018-06-16T16:56:47.211Z,40.70
2018-06-16T16:59:15.866Z,41.20
2018-06-16T17:01:44.440Z,43.50
2018-06-16T17:04:13.089Z,41.90
2018-06-16T17:06:41.674Z,42.30
2018-06-16T17:09:11.433Z,41.50
2018-06-16T17:11:40.096Z,41.70
2018-06-16T17:14:08.821Z,42.40
2018-06-16T17:16:37.512Z,42.40
2018-06-16T17:21:34.355Z,42.40
2018-06-16T17:24:02.908Z,43.50
2018-06-16T17:26:31.482Z,43.00
2018-06-16T17:29:00.057Z,44.30
2018-06-16T17:31:28.705Z,44.30
2018-06-16T17:33:57.225Z,44.10
2018-06-16T17:36:25.760Z,44.60
2018-06-16T17:38:54.364Z,45.50
2018-06-16T17:41:22.976Z,46.60
2018-06-16T17:43:51.841Z,45.50
2018-06-16T17:46:20.628Z,46.30
2018-06-16T17:48:49.543Z,45.90
2018-06-16T17:51:18.082Z,47.30
2018-06-16T17:53:46.653Z,47.00
2018-06-16T17:56:15.174Z,46.70
2018-06-16T17:58:44.169Z,46.90
2018-06-16T18:01:12.827Z,45.60
2018-06-16T18:03:41.630Z,46.00
2018-06-16T18:06:10.374Z,46.60
2018-06-16T18:08:39.361Z,46.60
2018-06-16T18:11:07.972Z,45.50
2018-06-16T18:13:36.586Z,45.90
2018-06-16T18:16:23.192Z,46.80
2018-06-16T18:18:51.870Z,45.40
2018-06-16T18:21:20.460Z,45.50
2018-06-16T18:23:49.044Z,45.70
2018-06-16T18:26:17.564Z,47.10
2018-06-16T18:28:46.093Z,45.50
2018-06-16T18:31:14.645Z,46.00
2018-06-16T18:33:43.191Z,46.20
2018-06-16T18:36:11.725Z,46.30
2018-06-16T18:38:40.280Z,46.50
2018-06-16T18:41:08.832Z,47.30
2018-06-16T18:43:37.335Z,47.00
2018-06-16T18:46:05.920Z,46.20
2018-06-16T18:48:34.439Z,46.80
2018-06-16T18:51:03.730Z,46.80
2018-06-16T18:53:32.239Z,49.40
2018-06-16T18:56:01.784Z,49.90
2018-06-16T18:58:30.352Z,50.90
2018-06-16T19:00:59.473Z,51.90
2018-06-16T19:03:28.000Z,52.30
2018-06-16T19:05:57.043Z,53.30
2018-06-16T19:08:25.926Z,55.10
2018-06-16T19:10:54.642Z,55.00
2018-06-16T19:13:23.423Z,55.00
2018-06-16T19:15:52.290Z,56.70
2018-06-16T19:18:21.290Z,56.30
2018-06-16T19:20:50.125Z,56.20
2018-06-16T19:25:47.240Z,56.70
2018-06-16T19:28:16.037Z,57.00
2018-06-16T19:30:44.902Z,56.20
2018-06-16T19:33:13.751Z,55.90
2018-06-16T19:35:42.540Z,55.60
2018-06-16T19:38:11.261Z,55.20
2018-06-16T19:40:39.946Z,55.90
2018-06-16T19:43:08.736Z,56.40
2018-06-16T19:45:37.284Z,56.80
2018-06-16T19:48:06.118Z,57.40
2018-06-16T19:50:34.876Z,57.10
2018-06-16T19:53:03.405Z,58.00
2018-06-16T19:58:00.096Z,57.80
2018-06-16T20:00:28.701Z,58.90
2018-06-16T20:02:57.258Z,59.20
2018-06-16T20:05:25.804Z,58.50
2018-06-16T20:07:54.303Z,59.00
2018-06-16T20:10:23.126Z,58.30
2018-06-16T20:12:52.169Z,59.20
2018-06-16T20:15:20.881Z,60.00
2018-06-16T20:17:49.645Z,60.00
2018-06-16T20:20:18.377Z,59.60
2018-06-16T20:25:15.678Z,59.70
2018-06-16T20:27:44.368Z,60.80
2018-06-16T20:30:13.112Z,60.70
2018-06-16T20:32:41.960Z,59.60
2018-06-16T20:35:10.741Z,59.70
2018-06-16T20:40:07.643Z,62.60
2018-06-16T20:42:36.207Z,60.80
2018-06-16T20:45:04.990Z,60.20
2018-06-16T20:47:33.528Z,63.90
2018-06-16T20:50:02.074Z,62.40
2018-06-16T20:52:30.576Z,62.00
2018-06-16T20:54:59.083Z,62.20
2018-06-16T20:57:27.590Z,63.40
2018-06-16T20:59:56.104Z,61.70
2018-06-16T21:04:52.755Z,61.70
2018-06-16T21:07:21.252Z,62.40
2018-06-16T21:12:18.107Z,65.50
2018-06-16T21:14:46.605Z,61.90
2018-06-16T21:19:43.668Z,62.70
2018-06-16T21:22:12.248Z,62.20
2018-06-16T21:24:40.790Z,63.60
2018-06-16T21:27:09.341Z,64.00
2018-06-16T21:29:37.906Z,64.10
2018-06-16T21:32:06.718Z,64.20
2018-06-16T21:34:35.373Z,63.60
2018-06-16T21:37:04.032Z,63.50
2018-06-16T21:39:32.531Z,63.90
2018-06-16T21:42:01.065Z,63.90
2018-06-16T21:44:29.618Z,65.90
2018-06-16T21:46:58.152Z,68.50
2018-06-16T21:59:19.425Z,66.00
2018-06-16T22:01:47.951Z,65.40
2018-06-16T22:04:16.482Z,65.60
2018-06-16T22:06:45.003Z,65.70
2018-06-16T22:09:13.534Z,65.70
2018-06-16T22:11:42.072Z,66.90
2018-06-16T22:16:38.761Z,68.60
2018-06-16T22:19:07.283Z,68.10
2018-06-16T22:21:35.796Z,68.00
2018-06-16T22:24:04.388Z,69.50
2018-06-16T22:26:32.896Z,68.80
2018-06-16T22:31:29.604Z,69.80
2018-06-16T22:33:58.153Z,70.80
2018-06-16T22:36:26.671Z,69.90
2018-06-16T22:38:55.203Z,70.60
2018-06-16T22:41:23.747Z,71.30
2018-06-16T22:43:52.236Z,71.70
2018-06-16T22:46:20.773Z,70.70
2018-06-16T22:48:49.333Z,71.00
2018-06-16T22:51:17.869Z,71.60
2018-06-16T22:53:46.378Z,73.10
2018-06-16T22:56:14.894Z,72.70
2018-06-16T22:58:43.413Z,72.40
2018-06-16T23:03:40.095Z,71.10
2018-06-16T23:06:08.783Z,72.10
2018-06-16T23:08:37.321Z,71.40
2018-06-16T23:11:05.836Z,72.60
2018-06-16T23:16:02.565Z,72.80
2018-06-16T23:18:32.004Z,72.70
2018-06-16T23:21:00.540Z,73.10
2018-06-16T23:23:29.295Z,72.70
2018-06-16T23:28:25.988Z,73.30
2018-06-16T23:30:54.512Z,73.50
2018-06-16T23:33:23.035Z,73.50
2018-06-16T23:35:51.575Z,74.10
2018-06-16T23:38:20.128Z,75.80
2018-06-16T23:40:48.640Z,76.40
2018-06-16T23:43:17.152Z,74.80
2018-06-16T23:45:45.720Z,75.10
2018-06-16T23:48:14.277Z,74.30
2018-06-16T23:50:42.825Z,74.30
2018-06-16T23:53:11.375Z,74.60
2018-06-16T23:55:39.907Z,75.80
